createdAt,value
2023-08-08T00:01:28.322Z,79.27
2023-08-08T00:03:54.834Z,79.27
2023-08-08T00:06:21.304Z,79.40
2023-08-08T00:08:47.720Z,79.06
2023-08-08T00:11:14.181Z,79.16
2023-08-08T00:13:40.634Z,79.49
2023-08-08T00:16:07.161Z,79.21
2023-08-08T00:18:33.639Z,79.08
2023-08-08T00:21:00.144Z,79.37
2023-08-08T00:23:26.577Z,79.47
2023-08-08T00:25:53.641Z,79.21
2023-08-08T00:28:20.197Z,79.49
2023-08-08T00:30:46.737Z,79.74
2023-08-08T00:33:13.230Z,79.83
2023-08-08T00:35:39.813Z,79.34
2023-08-08T00:38:06.410Z,79.55
2023-08-08T00:40:32.826Z,79.35
2023-08-08T00:42:59.308Z,79.62
2023-08-08T00:45:25.889Z,79.90
2023-08-08T00:47:52.713Z,79.68
2023-08-08T00:50:19.419Z,79.92
2023-08-08T00:52:46.360Z,79.80
2023-08-08T00:55:13.254Z,79.66
2023-08-08T00:57:39.846Z,79.32
2023-08-08T01:00:08.189Z,79.57
2023-08-08T01:02:34.798Z,79.40
2023-08-08T01:05:02.781Z,79.31
2023-08-08T01:07:44.771Z,78.74
2023-08-08T01:10:16.793Z,78.75
2023-08-08T01:12:49.648Z,78.43
2023-08-08T01:15:18.052Z,78.53
2023-08-08T01:17:45.242Z,78.17
2023-08-08T01:20:15.723Z,77.97
2023-08-08T01:23:13.287Z,77.71
2023-08-08T01:25:41.391Z,77.18
2023-08-08T01:28:08.824Z,77.06
2023-08-08T01:30:35.250Z,76.92
2023-08-08T01:33:02.444Z,77.08
2023-08-08T01:35:32.479Z,76.89
2023-08-08T01:38:09.766Z,76.56
2023-08-08T01:40:39.000Z,76.12
2023-08-08T01:43:05.743Z,75.86
2023-08-08T01:45:32.189Z,75.47
2023-08-08T01:47:58.664Z,74.91
2023-08-08T01:50:26.549Z,74.27
2023-08-08T01:52:53.000Z,74.31
2023-08-08T01:55:20.790Z,74.02
2023-08-08T01:57:47.256Z,73.77
2023-08-08T02:00:14.098Z,73.26
2023-08-08T02:02:43.985Z,72.83
2023-08-08T02:05:11.733Z,72.81
2023-08-08T02:07:38.590Z,72.69
2023-08-08T02:10:05.437Z,72.65
2023-08-08T02:12:32.213Z,71.99
2023-08-08T02:14:58.842Z,71.90
2023-08-08T02:17:26.626Z,71.92
2023-08-08T02:19:53.604Z,71.90
2023-08-08T02:22:20.123Z,71.93
2023-08-08T02:24:46.586Z,71.59
2023-08-08T02:27:13.875Z,71.41
2023-08-08T02:29:40.323Z,71.06
2023-08-08T02:32:07.253Z,71.30
2023-08-08T02:34:33.722Z,71.14
2023-08-08T02:37:00.164Z,71.25
2023-08-08T02:39:26.651Z,71.43
2023-08-08T02:41:53.081Z,71.33
2023-08-08T02:44:20.751Z,71.42
2023-08-08T02:46:47.268Z,71.22
2023-08-08T02:49:13.958Z,70.92
2023-08-08T02:51:40.665Z,71.16
2023-08-08T02:54:07.539Z,71.12
2023-08-08T02:56:35.867Z,71.05
2023-08-08T02:59:02.543Z,70.85
2023-08-08T03:01:29.177Z,70.86
2023-08-08T03:03:58.419Z,70.61
2023-08-08T03:06:26.357Z,70.45
2023-08-08T03:08:53.083Z,70.52
2023-08-08T03:11:19.537Z,70.23
2023-08-08T03:13:47.914Z,70.40
2023-08-08T03:16:14.529Z,70.73
2023-08-08T03:18:41.744Z,70.34
2023-08-08T03:21:08.328Z,70.32
2023-08-08T03:23:35.489Z,70.24
2023-08-08T03:26:02.040Z,70.17
2023-08-08T03:28:28.503Z,69.65
2023-08-08T03:30:56.889Z,69.97
2023-08-08T03:33:23.598Z,69.39
2023-08-08T03:35:50.060Z,69.76
2023-08-08T03:38:18.249Z,69.55
2023-08-08T03:40:45.170Z,69.34
2023-08-08T03:43:12.055Z,69.41
2023-08-08T03:45:38.565Z,69.29
2023-08-08T03:48:05.386Z,69.31
2023-08-08T03:50:32.062Z,69.28
2023-08-08T03:52:58.872Z,68.83
2023-08-08T03:55:25.407Z,68.87
2023-08-08T03:57:51.924Z,68.94
2023-08-08T04:00:18.794Z,68.60
2023-08-08T04:02:45.311Z,68.94
2023-08-08T04:05:13.316Z,68.78
2023-08-08T04:07:39.838Z,68.69
2023-08-08T04:10:06.696Z,69.07
2023-08-08T04:12:33.928Z,69.13
2023-08-08T04:15:00.522Z,68.88
2023-08-08T04:17:27.045Z,68.88
2023-08-08T04:19:53.665Z,69.18
2023-08-08T04:22:20.119Z,69.02
2023-08-08T04:24:46.718Z,69.00
2023-08-08T04:27:13.249Z,69.14
2023-08-08T04:29:39.721Z,68.81
2023-08-08T04:32:06.568Z,69.06
2023-08-08T04:34:33.050Z,69.11
2023-08-08T04:36:59.493Z,69.17
2023-08-08T04:39:25.945Z,69.27
2023-08-08T04:41:52.430Z,69.57
2023-08-08T04:44:18.893Z,69.97
2023-08-08T04:46:45.481Z,69.88
2023-08-08T04:49:11.920Z,69.91
2023-08-08T04:51:38.359Z,69.76
2023-08-08T04:54:05.040Z,69.77
2023-08-08T04:56:31.561Z,69.85
2023-08-08T04:58:58.236Z,69.99
2023-08-08T05:01:24.754Z,69.63
2023-08-08T05:03:53.688Z,69.61
2023-08-08T05:06:21.805Z,69.74
2023-08-08T05:08:49.628Z,69.50
2023-08-08T05:11:16.094Z,69.60
2023-08-08T05:13:43.895Z,69.59
2023-08-08T05:16:10.374Z,69.47
2023-08-08T05:18:36.893Z,69.13
2023-08-08T05:21:03.397Z,69.26
2023-08-08T05:23:29.835Z,68.90
2023-08-08T05:25:56.296Z,68.81
2023-08-08T05:28:22.858Z,69.07
2023-08-08T05:30:49.398Z,68.55
2023-08-08T05:33:15.867Z,68.28
2023-08-08T05:35:42.294Z,68.46
2023-08-08T05:38:08.782Z,68.79
2023-08-08T05:40:37.163Z,68.17
2023-08-08T05:43:04.680Z,68.27
2023-08-08T05:45:31.209Z,68.00
2023-08-08T05:47:57.885Z,68.07
2023-08-08T05:50:24.486Z,68.03
2023-08-08T05:52:50.963Z,67.53
2023-08-08T05:55:17.603Z,67.88
2023-08-08T05:57:44.045Z,67.62
2023-08-08T06:00:12.368Z,67.64
2023-08-08T06:02:42.442Z,67.18
2023-08-08T06:05:09.298Z,67.61
2023-08-08T06:07:36.015Z,67.72
2023-08-08T06:10:02.540Z,67.33
2023-08-08T06:12:29.168Z,67.20
2023-08-08T06:14:55.673Z,66.52
2023-08-08T06:17:24.428Z,67.20
2023-08-08T06:19:51.410Z,66.35
2023-08-08T06:22:18.222Z,66.04
2023-08-08T06:24:44.933Z,66.17
2023-08-08T06:27:11.650Z,65.84
2023-08-08T06:29:38.057Z,65.65
2023-08-08T06:32:04.680Z,65.80
2023-08-08T06:34:31.235Z,65.70
2023-08-08T06:36:57.746Z,65.23
2023-08-08T06:39:24.312Z,65.46
2023-08-08T06:41:50.791Z,65.18
2023-08-08T06:44:22.476Z,65.23
2023-08-08T06:46:48.974Z,65.36
2023-08-08T06:49:15.381Z,65.19
2023-08-08T06:51:41.768Z,65.23
2023-08-08T06:54:08.942Z,65.47
2023-08-08T06:56:35.448Z,65.47
2023-08-08T06:59:01.884Z,65.66
2023-08-08T07:01:28.630Z,65.21
2023-08-08T07:03:55.145Z,65.22
2023-08-08T07:06:21.557Z,65.68
2023-08-08T07:08:47.989Z,65.77
2023-08-08T07:11:14.476Z,65.37
2023-08-08T07:13:41.764Z,64.64
2023-08-08T07:16:08.283Z,65.01
2023-08-08T07:18:34.812Z,64.69
2023-08-08T07:21:01.592Z,64.69
2023-08-08T07:23:28.069Z,64.91
2023-08-08T07:25:54.504Z,64.92
2023-08-08T07:28:20.919Z,65.04
2023-08-08T07:30:47.446Z,65.11
2023-08-08T07:33:14.677Z,65.53
2023-08-08T07:35:41.274Z,65.84
2023-08-08T07:38:07.860Z,66.39
2023-08-08T07:40:34.438Z,66.41
2023-08-08T07:43:00.909Z,66.53
2023-08-08T07:45:27.391Z,66.50
2023-08-08T07:47:53.873Z,66.26
2023-08-08T07:50:20.436Z,65.74
2023-08-08T07:52:46.881Z,65.36
2023-08-08T07:55:13.699Z,65.57
2023-08-08T07:57:40.623Z,65.43
2023-08-08T08:00:13.079Z,65.01
2023-08-08T08:02:44.750Z,65.01
2023-08-08T08:05:11.779Z,64.72
2023-08-08T08:07:39.171Z,65.20
2023-08-08T08:10:08.685Z,64.84
2023-08-08T08:12:36.011Z,65.14
2023-08-08T08:15:03.294Z,64.82
2023-08-08T08:17:30.259Z,64.50
2023-08-08T08:19:56.695Z,64.55
2023-08-08T08:22:23.373Z,63.94
2023-08-08T08:24:49.818Z,63.79
2023-08-08T08:27:16.402Z,63.84
2023-08-08T08:29:42.905Z,63.91
2023-08-08T08:32:09.843Z,63.72
2023-08-08T08:34:36.323Z,62.90
2023-08-08T08:37:03.164Z,62.63
2023-08-08T08:39:29.629Z,63.44
2023-08-08T08:42:02.818Z,63.20
2023-08-08T08:44:32.210Z,63.21
2023-08-08T08:47:02.546Z,63.54
2023-08-08T08:49:31.824Z,63.00
2023-08-08T08:52:06.047Z,63.23
2023-08-08T08:54:33.828Z,62.98
2023-08-08T08:57:00.334Z,63.16
2023-08-08T08:59:27.044Z,63.26
2023-08-08T09:01:54.700Z,63.19
2023-08-08T09:04:22.899Z,63.39
2023-08-08T09:06:51.328Z,63.18
2023-08-08T09:09:18.615Z,63.13
2023-08-08T09:11:50.594Z,62.92
2023-08-08T09:14:21.718Z,62.98
2023-08-08T09:16:49.156Z,62.72
2023-08-08T09:19:17.007Z,62.99
2023-08-08T09:21:43.451Z,63.30
2023-08-08T09:24:10.483Z,63.02
2023-08-08T09:26:37.086Z,62.89
2023-08-08T09:29:04.591Z,62.73
2023-08-08T09:31:31.493Z,63.07
2023-08-08T09:34:00.465Z,63.51
2023-08-08T09:36:27.139Z,63.93
2023-08-08T09:38:54.847Z,63.07
2023-08-08T09:41:22.926Z,63.13
2023-08-08T09:43:50.924Z,63.11
2023-08-08T09:46:17.674Z,62.84
2023-08-08T09:48:44.699Z,62.71
2023-08-08T09:51:11.601Z,62.40
2023-08-08T09:53:39.839Z,62.18
2023-08-08T09:56:07.412Z,62.10
2023-08-08T09:58:34.485Z,61.96
2023-08-08T10:01:01.256Z,61.60
2023-08-08T10:03:29.473Z,62.04
2023-08-08T10:05:56.108Z,62.11
2023-08-08T10:08:22.973Z,62.33
2023-08-08T10:10:51.159Z,62.02
2023-08-08T10:13:24.804Z,61.98
2023-08-08T10:15:52.387Z,60.98
2023-08-08T10:18:22.096Z,61.12
2023-08-08T10:20:50.400Z,61.10
2023-08-08T10:23:18.069Z,61.02
2023-08-08T10:25:45.850Z,61.45
2023-08-08T10:28:26.297Z,61.83
2023-08-08T10:30:58.653Z,61.18
2023-08-08T10:33:27.692Z,61.02
2023-08-08T10:35:56.938Z,60.89
2023-08-08T10:38:27.846Z,61.09
2023-08-08T10:40:59.463Z,60.99
2023-08-08T10:43:28.203Z,61.22
2023-08-08T10:46:07.613Z,61.33
2023-08-08T10:48:50.147Z,60.56
2023-08-08T10:51:17.867Z,60.47
2023-08-08T10:53:44.359Z,60.66
2023-08-08T10:56:14.229Z,61.13
2023-08-08T10:58:43.098Z,61.14
2023-08-08T11:01:10.413Z,60.87
2023-08-08T11:03:40.175Z,61.04
2023-08-08T11:06:10.843Z,61.45
2023-08-08T11:08:39.585Z,61.72
2023-08-08T11:11:07.367Z,61.69
2023-08-08T11:13:34.229Z,61.91
2023-08-08T11:16:02.927Z,61.67
2023-08-08T11:18:29.693Z,61.77
2023-08-08T11:21:05.247Z,62.17
2023-08-08T11:23:39.946Z,62.24
2023-08-08T11:28:36.280Z,61.79
2023-08-08T11:31:02.842Z,61.98
2023-08-08T11:33:29.415Z,61.92
2023-08-08T11:35:57.758Z,61.90
2023-08-08T11:38:24.966Z,61.46
2023-08-08T11:40:53.483Z,60.65
2023-08-08T11:43:20.669Z,60.75
2023-08-08T11:45:50.409Z,60.35
2023-08-08T11:48:16.881Z,60.60
2023-08-08T11:50:45.596Z,60.67
2023-08-08T11:53:12.856Z,60.62
2023-08-08T11:55:39.407Z,60.65
2023-08-08T11:58:06.673Z,60.52
2023-08-08T12:00:33.203Z,60.09
2023-08-08T12:03:02.077Z,60.66
2023-08-08T12:05:29.082Z,60.47
2023-08-08T12:07:56.086Z,60.54
2023-08-08T12:10:24.317Z,61.15
2023-08-08T12:12:57.687Z,61.02
2023-08-08T12:15:24.486Z,60.68
2023-08-08T12:17:51.039Z,60.43
2023-08-08T12:20:17.689Z,60.21
2023-08-08T12:22:44.144Z,59.73
2023-08-08T12:25:10.639Z,60.11
2023-08-08T12:27:37.144Z,60.28
2023-08-08T12:30:03.892Z,60.19
2023-08-08T12:32:32.603Z,61.12
2023-08-08T12:34:59.133Z,60.88
2023-08-08T12:37:25.653Z,60.83
2023-08-08T12:39:52.482Z,61.40
2023-08-08T12:42:19.175Z,61.44
2023-08-08T12:44:46.332Z,61.44
2023-08-08T12:47:13.714Z,60.95
2023-08-08T12:49:42.257Z,60.89
2023-08-08T12:52:08.716Z,61.41
2023-08-08T12:54:37.141Z,61.57
2023-08-08T12:57:04.369Z,61.02
2023-08-08T12:59:31.368Z,61.10
2023-08-08T13:01:58.150Z,61.29
2023-08-08T13:04:25.119Z,61.33
2023-08-08T13:06:51.563Z,61.14
2023-08-08T13:09:18.116Z,61.25
2023-08-08T13:11:44.627Z,60.71
2023-08-08T13:14:11.080Z,59.92
2023-08-08T13:16:37.607Z,60.04
2023-08-08T13:19:04.958Z,60.22
2023-08-08T13:21:31.372Z,60.45
2023-08-08T13:23:58.734Z,60.44
2023-08-08T13:26:25.189Z,60.71
2023-08-08T13:28:51.733Z,60.09
2023-08-08T13:31:18.261Z,60.24
2023-08-08T13:33:44.800Z,60.41
2023-08-08T13:36:11.210Z,60.98
2023-08-08T13:38:37.737Z,60.67
2023-08-08T13:41:04.388Z,60.29
2023-08-08T13:43:31.717Z,60.35
2023-08-08T13:45:58.414Z,60.39
2023-08-08T13:48:24.957Z,60.27
2023-08-08T13:50:51.902Z,60.84
2023-08-08T13:53:18.428Z,60.74
2023-08-08T13:55:45.608Z,59.54
2023-08-08T13:58:12.175Z,59.70
2023-08-08T14:00:38.627Z,59.66
2023-08-08T14:03:05.227Z,59.77
2023-08-08T14:05:32.542Z,59.45
2023-08-08T14:07:59.040Z,59.81
2023-08-08T14:10:25.492Z,60.03
2023-08-08T14:12:51.946Z,59.81
2023-08-08T14:15:18.564Z,59.79
2023-08-08T14:17:46.543Z,59.46
2023-08-08T14:20:13.201Z,59.47
2023-08-08T14:22:39.667Z,59.61
2023-08-08T14:25:07.196Z,58.78
2023-08-08T14:27:33.947Z,58.24
2023-08-08T14:30:00.924Z,58.54
2023-08-08T14:32:27.550Z,59.06
2023-08-08T14:34:54.349Z,58.98
2023-08-08T14:37:21.326Z,58.87
2023-08-08T14:39:48.081Z,59.38
2023-08-08T14:42:14.701Z,59.25
2023-08-08T14:44:41.420Z,59.13
2023-08-08T14:47:08.453Z,59.38
2023-08-08T14:49:35.045Z,59.62
2023-08-08T14:52:01.795Z,59.83
2023-08-08T14:54:28.551Z,59.70
2023-08-08T14:56:55.073Z,59.74
2023-08-08T14:59:21.576Z,59.50
2023-08-08T15:01:48.072Z,59.57
2023-08-08T15:04:14.575Z,59.96
2023-08-08T15:06:41.689Z,60.27
2023-08-08T15:09:08.257Z,59.89
2023-08-08T15:11:34.666Z,59.82
2023-08-08T15:14:01.074Z,59.51
2023-08-08T15:16:27.527Z,59.23
2023-08-08T15:18:53.989Z,59.48
2023-08-08T15:21:20.639Z,59.33
2023-08-08T15:23:47.541Z,59.09
2023-08-08T15:26:17.320Z,59.14
2023-08-08T15:28:43.846Z,59.11
2023-08-08T15:31:10.365Z,58.89
2023-08-08T15:33:37.820Z,58.15
2023-08-08T15:36:04.578Z,58.03
2023-08-08T15:38:31.364Z,58.23
2023-08-08T15:40:58.166Z,58.21
2023-08-08T15:43:25.839Z,57.79
2023-08-08T15:45:53.148Z,57.65
2023-08-08T15:48:19.675Z,56.73
2023-08-08T15:50:46.598Z,56.28
2023-08-08T15:53:13.024Z,56.42
2023-08-08T15:55:39.479Z,56.52
2023-08-08T15:58:05.935Z,56.14
2023-08-08T16:00:32.387Z,55.87
2023-08-08T16:03:00.396Z,56.10
2023-08-08T16:05:29.110Z,56.70
2023-08-08T16:07:55.833Z,56.91
2023-08-08T16:10:23.981Z,56.97
2023-08-08T16:12:50.853Z,57.45
2023-08-08T16:15:19.059Z,57.42
2023-08-08T16:17:46.597Z,57.11
2023-08-08T16:20:13.184Z,57.25
2023-08-08T16:22:39.704Z,57.22
2023-08-08T16:25:06.674Z,56.84
2023-08-08T16:27:33.173Z,56.36
2023-08-08T16:30:00.084Z,55.85
2023-08-08T16:32:26.615Z,55.34
2023-08-08T16:34:54.025Z,55.57
2023-08-08T16:37:20.458Z,56.20
2023-08-08T16:39:48.114Z,56.75
2023-08-08T16:42:16.358Z,56.70
2023-08-08T16:44:43.057Z,56.96
2023-08-08T16:47:09.564Z,57.45
2023-08-08T16:49:37.017Z,57.88
2023-08-08T16:52:04.079Z,58.28
2023-08-08T16:54:30.903Z,58.16
2023-08-08T16:56:57.440Z,58.50
2023-08-08T16:59:23.948Z,58.72
2023-08-08T17:01:50.394Z,58.57
2023-08-08T17:04:18.028Z,58.76
2023-08-08T17:06:44.715Z,58.39
2023-08-08T17:09:11.262Z,58.06
2023-08-08T17:11:38.393Z,57.63
2023-08-08T17:14:05.368Z,57.93
2023-08-08T17:16:32.197Z,57.54
2023-08-08T17:18:58.830Z,57.73
2023-08-08T17:21:25.341Z,57.55
2023-08-08T17:23:51.997Z,58.00
2023-08-08T17:26:18.630Z,58.43
2023-08-08T17:28:45.121Z,58.88
2023-08-08T17:31:11.670Z,59.64
2023-08-08T17:33:38.576Z,59.79
2023-08-08T17:36:05.331Z,60.01
2023-08-08T17:38:31.922Z,60.44
2023-08-08T17:40:58.442Z,60.84
2023-08-08T17:43:24.901Z,61.29
2023-08-08T17:45:51.431Z,61.45
2023-08-08T17:48:18.004Z,61.32
2023-08-08T17:50:44.482Z,61.68
2023-08-08T17:53:10.956Z,61.94
2023-08-08T17:55:39.269Z,62.29
2023-08-08T17:58:05.775Z,62.07
2023-08-08T18:00:32.408Z,62.46
2023-08-08T18:02:59.225Z,62.50
2023-08-08T18:05:25.923Z,62.72
2023-08-08T18:07:52.431Z,63.00
2023-08-08T18:10:19.034Z,62.92
2023-08-08T18:12:45.441Z,62.59
2023-08-08T18:15:11.913Z,62.55
2023-08-08T18:17:38.394Z,62.64
2023-08-08T18:20:09.515Z,63.23
2023-08-08T18:22:36.706Z,63.28
2023-08-08T18:25:03.997Z,63.34
2023-08-08T18:27:30.523Z,63.94
2023-08-08T18:29:56.921Z,64.47
2023-08-08T18:32:23.436Z,65.11
2023-08-08T18:34:49.882Z,65.54
2023-08-08T18:37:16.371Z,65.73
2023-08-08T18:39:42.816Z,66.23
2023-08-08T18:42:09.267Z,66.14
2023-08-08T18:44:35.830Z,66.33
2023-08-08T18:47:02.241Z,66.48
2023-08-08T18:49:29.301Z,66.20
2023-08-08T18:51:55.763Z,66.55
2023-08-08T18:54:22.344Z,66.26
2023-08-08T18:56:48.870Z,66.37
2023-08-08T18:59:15.352Z,66.39
2023-08-08T19:01:41.836Z,66.54
2023-08-08T19:04:08.497Z,66.32
2023-08-08T19:06:35.024Z,66.75
2023-08-08T19:09:09.333Z,66.80
2023-08-08T19:11:37.045Z,66.93
2023-08-08T19:14:03.890Z,67.08
2023-08-08T19:16:31.776Z,67.42
2023-08-08T19:18:58.364Z,67.62
2023-08-08T19:21:24.972Z,68.26
2023-08-08T19:23:51.479Z,68.49
2023-08-08T19:26:17.921Z,68.96
2023-08-08T19:28:45.544Z,69.42
2023-08-08T19:31:13.167Z,70.08
2023-08-08T19:33:43.433Z,70.44
2023-08-08T19:36:15.081Z,70.84
2023-08-08T19:38:41.525Z,71.02
2023-08-08T19:41:09.126Z,71.75
2023-08-08T19:43:35.649Z,71.81
2023-08-08T19:46:02.139Z,72.03
2023-08-08T19:48:28.635Z,72.68
2023-08-08T19:50:55.121Z,72.43
2023-08-08T19:53:21.616Z,72.87
2023-08-08T19:55:48.567Z,73.25
2023-08-08T19:58:16.784Z,73.27
2023-08-08T20:00:43.433Z,73.58
2023-08-08T20:03:10.105Z,73.79
2023-08-08T20:05:36.600Z,74.00
2023-08-08T20:08:03.162Z,73.67
2023-08-08T20:10:29.568Z,73.94
2023-08-08T20:12:56.009Z,74.11
2023-08-08T20:15:22.519Z,74.52
2023-08-08T20:17:49.068Z,73.97
2023-08-08T20:20:15.643Z,74.15
2023-08-08T20:22:42.144Z,74.07
2023-08-08T20:25:09.056Z,74.16
2023-08-08T20:27:35.505Z,74.02
2023-08-08T20:30:02.207Z,74.12
2023-08-08T20:32:28.770Z,74.21
2023-08-08T20:34:55.357Z,74.24
2023-08-08T20:37:21.858Z,74.75
2023-08-08T20:39:48.349Z,74.27
2023-08-08T20:42:14.833Z,74.14
2023-08-08T20:44:41.298Z,74.27
2023-08-08T20:47:07.700Z,74.22
2023-08-08T20:49:34.204Z,74.31
2023-08-08T20:52:00.689Z,74.29
2023-08-08T20:54:27.927Z,74.48
2023-08-08T20:56:59.364Z,74.16
2023-08-08T20:59:26.850Z,74.60
2023-08-08T21:01:54.215Z,74.63
2023-08-08T21:04:22.229Z,74.49
2023-08-08T21:06:48.780Z,74.89
2023-08-08T21:09:15.269Z,74.79
2023-08-08T21:11:41.721Z,74.92
2023-08-08T21:14:08.128Z,75.04
2023-08-08T21:16:34.615Z,75.15
2023-08-08T21:19:01.121Z,75.37
2023-08-08T21:21:27.532Z,75.35
2023-08-08T21:23:55.110Z,75.56
2023-08-08T21:26:33.788Z,75.35
2023-08-08T21:29:04.755Z,75.27
2023-08-08T21:31:31.257Z,75.67
2023-08-08T21:33:57.684Z,75.61
2023-08-08T21:36:24.193Z,75.39
2023-08-08T21:38:50.617Z,75.96
2023-08-08T21:41:17.009Z,75.99
2023-08-08T21:43:43.453Z,75.75
2023-08-08T21:46:09.940Z,75.79
2023-08-08T21:48:36.369Z,75.69
2023-08-08T21:51:02.886Z,76.04
2023-08-08T21:53:29.682Z,76.00
2023-08-08T21:55:56.168Z,76.11
2023-08-08T21:58:22.635Z,75.69
2023-08-08T22:00:49.116Z,75.65
2023-08-08T22:03:15.838Z,75.63
2023-08-08T22:05:42.739Z,75.74
2023-08-08T22:08:09.175Z,75.93
2023-08-08T22:10:35.738Z,76.12
2023-08-08T22:13:03.143Z,76.30
2023-08-08T22:15:29.772Z,76.56
2023-08-08T22:18:05.573Z,76.76
2023-08-08T22:20:32.363Z,76.61
2023-08-08T22:23:09.511Z,77.33
2023-08-08T22:25:45.155Z,77.15
2023-08-08T22:28:11.613Z,77.17
2023-08-08T22:30:38.088Z,77.05
2023-08-08T22:33:05.132Z,77.31
2023-08-08T22:35:31.676Z,77.56
2023-08-08T22:37:58.117Z,77.67
2023-08-08T22:40:24.606Z,77.74
2023-08-08T22:42:52.138Z,77.59
2023-08-08T22:45:18.943Z,77.80
2023-08-08T22:47:45.496Z,77.93
2023-08-08T22:50:11.976Z,77.91
2023-08-08T22:52:38.498Z,78.20
2023-08-08T22:55:05.758Z,78.11
2023-08-08T22:57:32.218Z,77.87
2023-08-08T22:59:58.690Z,77.92
2023-08-08T23:02:25.194Z,78.00
2023-08-08T23:04:51.936Z,78.23
2023-08-08T23:07:19.402Z,77.97
2023-08-08T23:09:46.097Z,78.26
2023-08-08T23:12:12.537Z,78.23
2023-08-08T23:14:39.016Z,78.32
2023-08-08T23:17:05.489Z,78.12
2023-08-08T23:19:31.990Z,78.14
2023-08-08T23:21:58.484Z,78.32
2023-08-08T23:24:25.059Z,78.00
2023-08-08T23:26:51.874Z,78.55
2023-08-08T23:29:18.387Z,78.77
2023-08-08T23:31:44.882Z,78.25
2023-08-08T23:34:11.357Z,78.44
2023-08-08T23:36:37.911Z,78.55
2023-08-08T23:39:05.545Z,78.83
2023-08-08T23:41:32.166Z,78.69
2023-08-08T23:43:58.810Z,78.86
2023-08-08T23:46:26.070Z,79.08
2023-08-08T23:48:52.577Z,78.65
2023-08-08T23:51:19.005Z,78.89
2023-08-08T23:53:45.825Z,78.83
2023-08-08T23:56:12.337Z,78.99
2023-08-08T23:58:38.803Z,78.85
